Time;durP1;ratioP1;P1;durP2;ratioP2;P2;SDS_P1;SDS_P2;PMS_P1;PMS_P2;Temp;Humidity;BMP_temperature;BMP_pressure;BME280_temperature;BME280_humidity;BME280_pressure;Samples;Min_cycle;Max_cycle;Signal;HPM_P1;HPM_P2
2022/04/23 00:00:15;;;;;;;;;;;;;;;;;;5027469;28;19920;-91
2022/04/23 00:02:42;;;;;;;;;;;;;;;;;;5030881;28;19930;-90
2022/04/23 00:05:08;;;;;;;;;;;;;;;;;;5014875;28;19921;-91
2022/04/23 00:07:34;;;;;;;;;;;;;;;;;;5035050;28;20554;-91
2022/04/23 00:10:02;;;;;;;;;;;;;;;;;;5009808;28;20020;-90
2022/04/23 00:12:34;;;;;;;;;;;;;;;;;;5022064;28;19924;-90
2022/04/23 00:15:00;;;;;;;;;;;;;;;;;;5009524;28;19924;-91
2022/04/23 00:17:26;;;;;;;;;;;;;;;;;;5012137;28;19931;-90
2022/04/23 00:19:55;;;;;;;;;;;;;;;;;;5015049;28;19920;-90
2022/04/23 00:22:23;;;;;;;;;;;;;;;;;;5029167;28;19928;-91
2022/04/23 00:24:49;;;;;;;;;;;;;;;;;;5032188;28;19927;-91
2022/04/23 00:27:18;;;;;;;;;;;;;;;;;;5018875;28;20331;-90
2022/04/23 00:29:44;;;;;;;;;;;;;;;;;;5016401;28;20023;-90
2022/04/23 00:32:10;;;;;;;;;;;;;;;;;;5013185;28;23225;-90
2022/04/23 00:34:36;;;;;;;;;;;;;;;;;;5014104;28;20363;-91
2022/04/23 00:37:05;;;;;;;;;;;;;;;;;;5023934;28;19930;-91
2022/04/23 00:39:39;;;;;;;;;;;;;;;;;;5028596;28;19929;-90
2022/04/23 00:42:08;;;;;;;;;;;;;;;;;;5012758;28;19932;-90
2022/04/23 00:44:34;;;;;;;;;;;;;;;;;;5016212;28;20618;-90
2022/04/23 00:47:00;;;;;;;;;;;;;;;;;;5008905;28;19920;-92
2022/04/23 00:49:29;;;;;;;;;;;;;;;;;;5031060;28;20375;-91
2022/04/23 00:51:55;;;;;;;;;;;;;;;;;;5013548;28;19924;-91
2022/04/23 00:54:27;;;;;;;;;;;;;;;;;;5004058;28;19987;-91
2022/04/23 00:56:53;;;;;;;;;;;;;;;;;;5003884;28;19936;-91
2022/04/23 00:59:21;;;;;;;;;;;;;;;;;;4992583;28;19937;-90
2022/04/23 01:01:53;;;;;;;;;;;;;;;;;;4988328;28;22415;-91
2022/04/23 01:04:19;;;;;;;;;;;;;;;;;;5009137;28;19975;-91
2022/04/23 01:06:45;;;;;;;;;;;;;;;;;;4990586;28;19924;-91
2022/04/23 01:09:11;;;;;;;;;;;;;;;;;;5003939;28;20280;-90
2022/04/23 01:11:39;;;;;;;;;;;;;;;;;;4996850;28;19921;-91
2022/04/23 01:14:05;;;;;;;;;;;;;;;;;;4989674;28;20066;-91
2022/04/23 01:16:34;;;;;;;;;;;;;;;;;;4990692;28;19928;-90
2022/04/23 01:19:00;;;;;;;;;;;;;;;;;;5000713;28;19936;-91
2022/04/23 01:21:29;;;;;;;;;;;;;;;;;;4991622;28;20547;-92
2022/04/23 01:23:56;;;;;;;;;;;;;;;;;;4993447;28;19974;-90
2022/04/23 01:26:22;;;;;;;;;;;;;;;;;;4986537;28;19929;-92
2022/04/23 01:28:50;;;;;;;;;;;;;;;;;;5007402;28;19982;-91
2022/04/23 01:31:17;;;;;;;;;;;;;;;;;;5000621;28;19929;-90
2022/04/23 01:33:43;;;;;;;;;;;;;;;;;;4997018;28;19932;-91
2022/04/23 01:36:09;;;;;;;;;;;;;;;;;;4987494;28;19932;-91
2022/04/23 01:38:37;;;;;;;;;;;;;;;;;;4999470;28;19925;-91
2022/04/23 01:41:03;;;;;;;;;;;;;;;;;;4988071;28;19967;-92
2022/04/23 01:43:29;;;;;;;;;;;;;;;;;;4994284;28;20435;-91
2022/04/23 01:45:55;;;;;;;;;;;;;;;;;;4985833;28;19995;-90
2022/04/23 01:48:24;;;;;;;;;;;;;;;;;;4988810;28;19948;-91
2022/04/23 01:50:51;;;;;;;;;;;;;;;;;;4991773;28;19941;-91
2022/04/23 01:53:18;;;;;;;;;;;;;;;;;;4991819;28;20018;-90
2022/04/23 01:55:46;;;;;;;;;;;;;;;;;;5013478;28;20445;-91
2022/04/23 01:58:12;;;;;;;;;;;;;;;;;;5029709;28;19975;-91
2022/04/23 02:00:39;;;;;;;;;;;;;;;;;;5012744;28;20019;-90
2022/04/23 02:03:06;;;;;;;;;;;;;;;;;;5027643;28;19987;-91
2022/04/23 02:05:32;;;;;;;;;;;;;;;;;;5014406;28;20053;-90
2022/04/23 02:07:58;;;;;;;;;;;;;;;;;;5011289;28;19928;-91
2022/04/23 02:10:26;;;;;;;;;;;;;;;;;;5029728;28;21095;-92
2022/04/23 02:12:53;;;;;;;;;;;;;;;;;;5028347;28;19929;-91
2022/04/23 02:15:20;;;;;;;;;;;;;;;;;;5036224;28;19973;-92
2022/04/23 02:17:56;;;;;;;;;;;;;;;;;;5019884;28;19923;-92
2022/04/23 02:20:23;;;;;;;;;;;;;;;;;;5053930;28;20010;-90
2022/04/23 02:22:49;;;;;;;;;;;;;;;;;;5019369;28;20398;-92
2022/04/23 02:25:16;;;;;;;;;;;;;;;;;;5029271;28;19971;-90
2022/04/23 02:27:42;;;;;;;;;;;;;;;;;;5034102;28;19934;-90
2022/04/23 02:30:08;;;;;;;;;;;;;;;;;;5011655;28;19973;-91
2022/04/23 02:32:34;;;;;;;;;;;;;;;;;;5034271;28;19924;-92
2022/04/23 02:35:00;;;;;;;;;;;;;;;;;;5029585;28;19928;-91
2022/04/23 02:37:29;;;;;;;;;;;;;;;;;;5036709;28;19925;-91
2022/04/23 02:39:58;;;;;;;;;;;;;;;;;;5014256;28;19956;-91
2022/04/23 02:42:34;;;;;;;;;;;;;;;;;;5016428;28;20299;-92
2022/04/23 02:45:03;;;;;;;;;;;;;;;;;;5017188;28;20270;-91
2022/04/23 02:47:29;;;;;;;;;;;;;;;;;;5034910;28;19988;-91
2022/04/23 02:49:55;;;;;;;;;;;;;;;;;;5017327;28;20111;-92
2022/04/23 02:52:21;;;;;;;;;;;;;;;;;;5020516;28;19925;-91
2022/04/23 02:54:48;;;;;;;;;;;;;;;;;;5003345;28;20019;-91
2022/04/23 02:57:16;;;;;;;;;;;;;;;;;;5000512;28;19935;-90
2022/04/23 02:59:42;;;;;;;;;;;;;;;;;;4993562;28;19924;-91
2022/04/23 03:02:08;;;;;;;;;;;;;;;;;;5004863;28;20036;-91
2022/04/23 03:04:37;;;;;;;;;;;;;;;;;;5012318;28;19929;-91
2022/04/23 03:07:03;;;;;;;;;;;;;;;;;;5022562;28;19928;-91
2022/04/23 03:09:29;;;;;;;;;;;;;;;;;;5014282;28;20018;-91
2022/04/23 03:11:55;;;;;;;;;;;;;;;;;;5009260;28;19973;-90
2022/04/23 03:14:24;;;;;;;;;;;;;;;;;;5017175;28;20078;-91
2022/04/23 03:16:50;;;;;;;;;;;;;;;;;;5031940;28;19935;-91
2022/04/23 03:19:16;;;;;;;;;;;;;;;;;;5012696;28;19978;-92
2022/04/23 03:21:42;;;;;;;;;;;;;;;;;;5012224;28;19936;-91
2022/04/23 03:24:08;;;;;;;;;;;;;;;;;;5009542;28;20002;-92
2022/04/23 03:26:34;;;;;;;;;;;;;;;;;;5011881;28;19928;-90
2022/04/23 03:29:04;;;;;;;;;;;;;;;;;;5014720;28;20038;-91
2022/04/23 03:31:33;;;;;;;;;;;;;;;;;;5014629;28;19971;-91
2022/04/23 03:33:59;;;;;;;;;;;;;;;;;;5019008;28;20008;-92
2022/04/23 03:36:25;;;;;;;;;;;;;;;;;;5038370;28;19925;-92
2022/04/23 03:38:51;;;;;;;;;;;;;;;;;;5009512;28;20365;-90
2022/04/23 03:41:17;;;;;;;;;;;;;;;;;;5006865;28;19928;-92
2022/04/23 03:43:43;;;;;;;;;;;;;;;;;;5008946;28;19929;-91
2022/04/23 03:46:09;;;;;;;;;;;;;;;;;;5010189;28;19924;-93
2022/04/23 03:48:36;;;;;;;;;;;;;;;;;;5022664;28;19921;-90
2022/04/23 03:51:04;;;;;;;;;;;;;;;;;;5002086;28;19935;-92
2022/04/23 03:53:30;;;;;;;;;;;;;;;;;;5007045;28;19932;-92
2022/04/23 03:55:56;;;;;;;;;;;;;;;;;;5021666;28;19927;-92
2022/04/23 03:58:23;;;;;;;;;;;;;;;;;;5024920;28;20039;-91
2022/04/23 04:00:49;;;;;;;;;;;;;;;;;;5008567;28;20363;-91
2022/04/23 04:03:18;;;;;;;;;;;;;;;;;;5009096;28;20812;-92
2022/04/23 04:05:45;;;;;;;;;;;;;;;;;;5009898;28;20203;-91
2022/04/23 04:08:12;;;;;;;;;;;;;;;;;;5020666;28;20053;-91
2022/04/23 04:10:38;;;;;;;;;;;;;;;;;;5012818;28;19967;-91
2022/04/23 04:13:04;;;;;;;;;;;;;;;;;;5005404;28;19929;-92
2022/04/23 04:15:30;;;;;;;;;;;;;;;;;;5010041;28;20467;-91
2022/04/23 04:17:58;;;;;;;;;;;;;;;;;;5021384;28;19921;-92
2022/04/23 04:20:24;;;;;;;;;;;;;;;;;;5010563;28;20391;-92
2022/04/23 04:22:56;;;;;;;;;;;;;;;;;;5006549;28;19983;-91
2022/04/23 04:25:22;;;;;;;;;;;;;;;;;;5025243;28;19934;-92
2022/04/23 04:28:00;;;;;;;;;;;;;;;;;;5025866;28;19924;-90
2022/04/23 04:31:46;;;;;;;;;;;;;;;;;;5013728;28;20257;-92
2022/04/23 04:33:14;;;;;;;;;;;;;;;;;;5018142;28;20447;-92
2022/04/23 04:35:40;;;;;;;;;;;;;;;;;;5010844;28;19928;-92
2022/04/23 04:38:06;;;;;;;;;;;;;;;;;;5004173;28;19920;-92
2022/04/23 04:40:36;;;;;;;;;;;;;;;;;;5022500;28;19974;-92
2022/04/23 04:43:04;;;;;;;;;;;;;;;;;;5022716;28;19932;-93
2022/04/23 04:45:30;;;;;;;;;;;;;;;;;;5009932;28;20031;-92
2022/04/23 04:47:59;;;;;;;;;;;;;;;;;;5003948;28;19921;-92
2022/04/23 04:50:25;;;;;;;;;;;;;;;;;;5031727;28;19931;-91
2022/04/23 04:52:51;;;;;;;;;;;;;;;;;;5004132;28;19924;-91
2022/04/23 04:55:17;;;;;;;;;;;;;;;;;;5008462;28;19936;-92
2022/04/23 04:57:43;;;;;;;;;;;;;;;;;;5011731;28;19959;-92
2022/04/23 05:00:09;;;;;;;;;;;;;;;;;;5020489;28;20582;-90
2022/04/23 05:02:38;;;;;;;;;;;;;;;;;;5026241;28;20402;-91
2022/04/23 05:05:04;;;;;;;;;;;;;;;;;;5011455;28;19932;-91
2022/04/23 05:07:30;;;;;;;;;;;;;;;;;;5010733;28;19929;-92
2022/04/23 05:09:56;;;;;;;;;;;;;;;;;;5009031;28;19943;-91
2022/04/23 05:12:22;;;;;;;;;;;;;;;;;;5012243;28;19929;-92
2022/04/23 05:14:48;;;;;;;;;;;;;;;;;;5011227;28;20639;-92
2022/04/23 05:17:20;;;;;;;;;;;;;;;;;;5010929;28;20410;-92
2022/04/23 05:19:52;;;;;;;;;;;;;;;;;;5008730;28;20010;-93
2022/04/23 05:22:18;;;;;;;;;;;;;;;;;;5022517;28;19983;-93
2022/04/23 05:24:44;;;;;;;;;;;;;;;;;;5018897;28;20354;-91
2022/04/23 05:27:10;;;;;;;;;;;;;;;;;;5020792;28;19928;-93
2022/04/23 05:29:36;;;;;;;;;;;;;;;;;;5019471;28;20488;-93
2022/04/23 05:32:05;;;;;;;;;;;;;;;;;;5020282;28;19920;-92
2022/04/23 05:34:34;;;;;;;;;;;;;;;;;;5024970;28;20098;-92
2022/04/23 05:37:03;;;;;;;;;;;;;;;;;;5026587;28;19947;-92
2022/04/23 05:39:29;;;;;;;;;;;;;;;;;;5026333;28;19921;-93
2022/04/23 05:42:03;;;;;;;;;;;;;;;;;;5022309;28;19940;-91
2022/04/23 05:44:31;;;;;;;;;;;;;;;;;;5023622;28;19921;-93
2022/04/23 05:46:57;;;;;;;;;;;;;;;;;;5018168;28;19931;-93
2022/04/23 05:49:41;;;;;;;;;;;;;;;;;;5022485;28;19928;-92
2022/04/23 05:52:12;;;;;;;;;;;;;;;;;;5040834;28;21132;-93
2022/04/23 05:54:39;;;;;;;;;;;;;;;;;;5030111;28;19932;-92
2022/04/23 05:57:05;;;;;;;;;;;;;;;;;;5035732;28;19936;-93
2022/04/23 05:59:31;;;;;;;;;;;;;;;;;;5042903;28;20363;-93
2022/04/23 06:01:57;;;;;;;;;;;;;;;;;;5018169;28;20278;-92
2022/04/23 06:04:25;;;;;;;;;;;;;;;;;;5024423;28;19929;-92
2022/04/23 06:06:51;;;;;;;;;;;;;;;;;;5026430;28;19951;-94
2022/04/23 06:09:23;;;;;;;;;;;;;;;;;;5029943;28;19929;-92
2022/04/23 06:11:56;;;;;;;;;;;;;;;;;;5025616;28;19933;-94
2022/04/23 06:14:23;;;;;;;;;;;;;;;;;;5023507;28;19944;-94
2022/04/23 06:16:59;;;;;;;;;;;;;;;;;;5027071;28;19935;-92
2022/04/23 06:19:25;;;;;;;;;;;;;;;;;;5043048;28;19920;-92
2022/04/23 06:22:02;;;;;;;;;;;;;;;;;;;;;
2022/04/23 06:24:28;;;;;;;;;;;;;;;;;;5043272;28;20499;-93
2022/04/23 06:26:54;;;;;;;;;;;;;;;;;;5025744;28;19970;-93
2022/04/23 06:29:29;;;;;;;;;;;;;;;;;;5029176;28;19921;-91
2022/04/23 06:31:55;;;;;;;;;;;;;;;;;;5039147;28;19973;-93
2022/04/23 06:34:30;;;;;;;;;;;;;;;;;;5039750;28;19925;-92
2022/04/23 06:36:59;;;;;;;;;;;;;;;;;;5019566;28;20074;-92
2022/04/23 06:39:25;;;;;;;;;;;;;;;;;;5026091;28;19997;-92
2022/04/23 06:41:57;;;;;;;;;;;;;;;;;;5025248;28;19979;-93
2022/04/23 06:44:41;;;;;;;;;;;;;;;;;;5046485;28;19924;-94
2022/04/23 06:47:10;;;;;;;;;;;;;;;;;;5026343;28;19925;-91
2022/04/23 06:49:36;;;;;;;;;;;;;;;;;;5024266;28;19928;-92
2022/04/23 06:52:05;;;;;;;;;;;;;;;;;;5033553;28;20402;-94
2022/04/23 06:54:31;;;;;;;;;;;;;;;;;;5022697;28;19951;-92
2022/04/23 06:56:59;;;;;;;;;;;;;;;;;;5039984;28;19920;-92
2022/04/23 06:59:26;;;;;;;;;;;;;;;;;;5023312;28;19948;-92
2022/04/23 07:02:01;;;;;;;;;;;;;;;;;;5038281;28;19935;-93
2022/04/23 07:04:28;;;;;;;;;;;;;;;;;;5028644;28;20378;-92
2022/04/23 07:06:59;;;;;;;;;;;;;;;;;;5039923;28;19928;-92
2022/04/23 07:09:25;;;;;;;;;;;;;;;;;;5036047;28;19929;-94
2022/04/23 07:11:58;;;;;;;;;;;;;;;;;;5029446;28;19928;-93
2022/04/23 07:14:25;;;;;;;;;;;;;;;;;;5021815;28;20047;-94
2022/04/23 07:17:01;;;;;;;;;;;;;;;;;;5034432;28;19935;-93
2022/04/23 07:19:32;;;;;;;;;;;;;;;;;;5017061;28;19925;-94
2022/04/23 07:21:58;;;;;;;;;;;;;;;;;;5036913;28;20003;-93
2022/04/23 07:24:30;;;;;;;;;;;;;;;;;;5028425;28;20066;-95
2022/04/23 07:30:00;;;;;;;;;;;;;;;;;;5015117;28;20002;-95
2022/04/23 07:32:29;;;;;;;;;;;;;;;;;;5037238;28;19936;-94
2022/04/23 07:37:46;;;;;;;;;;;;;;;;;;5040455;28;19927;-92
2022/04/23 07:40:18;;;;;;;;;;;;;;;;;;5037648;28;19936;-94
2022/04/23 07:43:10;;;;;;;;;;;;;;;;;;5024197;28;19928;-93
2022/04/23 07:45:36;;;;;;;;;;;;;;;;;;5042920;28;19920;-95
2022/04/23 07:48:14;;;;;;;;;;;;;;;;;;5039328;28;19933;-94
2022/04/23 07:50:40;;;;;;;;;;;;;;;;;;5022577;28;19924;-95
2022/04/23 07:53:11;;;;;;;;;;;;;;;;;;5021174;28;19957;-96
2022/04/23 07:55:40;;;;;;;;;;;;;;;;;;5023559;28;20361;-94
2022/04/23 07:58:21;;;;;;;;;;;;;;;;;;5056499;28;19991;-94
2022/04/23 08:00:55;;;;;;;;;;;;;;;;;;5023444;28;20016;-94
2022/04/23 08:03:21;;;;;;;;;;;;;;;;;;5028829;28;19939;-94
2022/04/23 08:06:04;;;;;;;;;;;;;;;;;;5024141;28;19946;-94
2022/04/23 08:08:32;;;;;;;;;;;;;;;;;;5022771;28;19931;-93
2022/04/23 08:11:02;;;;;;;;;;;;;;;;;;5025401;28;19932;-94
2022/04/23 08:13:28;;;;;;;;;;;;;;;;;;5025530;28;19929;-94
2022/04/23 08:15:59;;;;;;;;;;;;;;;;;;5021235;28;20390;-94
2022/04/23 08:18:34;;;;;;;;;;;;;;;;;;5041805;28;19931;-94
2022/04/23 08:21:00;;;;;;;;;;;;;;;;;;5015606;28;19994;-94
2022/04/23 08:26:22;;;;;;;;;;;;;;;;;;5025594;28;19934;-95
2022/04/23 08:31:36;;;;;;;;;;;;;;;;;;5037463;28;19947;-95
2022/04/23 08:34:02;;;;;;;;;;;;;;;;;;5024107;28;19947;-94
2022/04/23 08:36:35;;;;;;;;;;;;;;;;;;5024645;28;20367;-95
2022/04/23 08:39:28;;;;;;;;;;;;;;;;;;5026151;28;19932;-94
2022/04/23 08:42:09;;;;;;;;;;;;;;;;;;5031214;28;20015;-94
2022/04/23 08:44:40;;;;;;;;;;;;;;;;;;5027332;28;20326;-95
2022/04/23 08:47:24;;;;;;;;;;;;;;;;;;5032204;28;20015;-96
2022/04/23 08:49:59;;;;;;;;;;;;;;;;;;5042367;28;19929;-95
2022/04/23 08:52:25;;;;;;;;;;;;;;;;;;5031511;28;19924;-95
2022/04/23 08:55:11;;;;;;;;;;;;;;;;;;;;;
2022/04/23 08:57:46;;;;;;;;;;;;;;;;;;5046319;28;19924;-95
2022/04/23 09:00:25;;;;;;;;;;;;;;;;;;;;;
2022/04/23 09:03:14;;;;;;;;;;;;;;;;;;5057802;28;19962;-95
2022/04/23 09:08:46;;;;;;;;;;;;;;;;;;5038000;28;20007;-94
2022/04/23 09:11:20;;;;;;;;;;;;;;;;;;5022602;28;19928;-95
2022/04/23 09:13:59;;;;;;;;;;;;;;;;;;;;;
2022/04/23 09:24:54;;;;;;;;;;;;;;;;;;5041909;28;19928;-94
2022/04/23 09:27:28;;;;;;;;;;;;;;;;;;5042944;28;20448;-96
2022/04/23 09:29:56;;;;;;;;;;;;;;;;;;5044009;28;20087;-94
2022/04/23 09:32:42;;;;;;;;;;;;;;;;;;;;;
2022/04/23 09:35:20;;;;;;;;;;;;;;;;;;5043491;28;20006;-96
2022/04/23 09:40:34;;;;;;;;;;;;;;;;;;5044224;28;20067;-95
2022/04/23 09:43:05;;;;;;;;;;;;;;;;;;5034818;28;19921;-94
2022/04/23 09:45:41;;;;;;;;;;;;;;;;;;5047929;28;19926;-93
2022/04/23 09:51:13;;;;;;;;;;;;;;;;;;5039407;28;20016;-94
2022/04/23 09:53:57;;;;;;;;;;;;;;;;;;5044390;28;19967;-95
2022/04/23 09:56:59;;;;;;;;;;;;;;;;;;5055908;28;20370;-96
2022/04/23 09:59:47;;;;;;;;;;;;;;;;;;5019224;28;19925;-95
2022/04/23 10:02:22;;;;;;;;;;;;;;;;;;5050557;28;19941;-95
2022/04/23 10:04:56;;;;;;;;;;;;;;;;;;5018857;28;20248;-94
2022/04/23 10:13:36;;;;;;;;;;;;;;;;;;5078821;22;20437;-85
2022/04/23 10:16:03;;;;;;;;;;;;;;;;;;5065928;28;20015;-85
2022/04/23 10:18:29;;;;;;;;;;;;;;;;;;5066562;28;19966;-85
2022/04/23 10:20:57;;;;;;;;;;;;;;;;;;5033613;28;20362;-85
2022/04/23 10:23:23;;;;;;;;;;;;;;;;;;5057245;28;20011;-84
2022/04/23 10:25:49;;;;;;;;;;;;;;;;;;5055111;28;20450;-84
2022/04/23 10:28:16;;;;;;;;;;;;;;;;;;5030662;28;19962;-84
2022/04/23 10:30:42;;;;;;;;;;;;;;;;;;5054249;28;19959;-84
2022/04/23 10:33:07;;;;;;;;;;;;;;;;;;5070884;28;19920;-84
2022/04/23 10:35:34;;;;;;;;;;;;;;;;;;5045699;28;20005;-84
2022/04/23 10:38:02;;;;;;;;;;;;;;;;;;5027850;28;20895;-84
2022/04/23 10:40:28;;;;;;;;;;;;;;;;;;5046535;28;19935;-84
2022/04/23 10:42:55;;;;;;;;;;;;;;;;;;5053824;28;19920;-84
2022/04/23 10:45:21;;;;;;;;;;;;;;;;;;5042403;28;20648;-85
2022/04/23 10:47:46;;;;;;;;;;;;;;;;;;5047009;28;19923;-81
2022/04/23 10:50:13;;;;;;;;;;;;;;;;;;5059263;28;19982;-81
2022/04/23 10:52:39;;;;;;;;;;;;;;;;;;5064005;28;19988;-81
2022/04/23 10:55:05;;;;;;;;;;;;;;;;;;5037573;28;20382;-81
2022/04/23 10:57:31;;;;;;;;;;;;;;;;;;5067574;28;20505;-81
2022/04/23 10:59:57;;;;;;;;;;;;;;;;;;5049583;28;19930;-81
2022/04/23 11:02:23;;;;;;;;;;;;;;;;;;5045978;28;19971;-81
2022/04/23 11:12:14;;;;;;;;;;;;;;;;;;5047672;28;20533;-81
2022/04/23 11:12:46;;;;;;;;;;;;;;;;;;5043466;28;20038;-81
2022/04/23 11:15:13;;;;;;;;;;;;;;;;;;5078346;22;20286;-81
2022/04/23 11:17:39;;;;;;;;;;;;;;;;;;5054087;28;19927;-81
2022/04/23 11:20:05;;;;;;;;;;;;;;;;;;5066331;28;20377;-81
2022/04/23 11:22:31;;;;;;;;;;;;;;;;;;5060509;27;20046;-81
2022/04/23 11:24:57;;;;;;;;;;;;;;;;;;5049092;28;19923;-81
2022/04/23 11:27:24;;;;;;;;;;;;;;;;;;5087144;27;19928;-81
2022/04/23 11:29:50;;;;;;;;;;;;;;;;;;5099068;27;19924;-81
2022/04/23 11:32:16;;;;;;;;;;;;;;;;;;5076492;28;19931;-81
2022/04/23 11:34:42;;;;;;;;;;;;;;;;;;5093185;27;20014;-80
2022/04/23 11:37:08;;;;;;;;;;;;;;;;;;5086961;27;20673;-81
2022/04/23 11:39:34;;;;;;;;;;;;;;;;;;5095670;27;19965;-80
2022/04/23 11:42:00;;;;;;;;;;;;;;;;;;5087299;27;19932;-80
2022/04/23 11:47:10;;;;;;;;;;;;;;;;;;5071275;28;21410;-81
2022/04/23 11:49:36;;;;;;;;;;;;;;;;;;5096452;28;20663;-80
2022/04/23 11:52:03;;;;;;;;;;;;;;;;;;5075448;27;20385;-80
2022/04/23 11:54:28;;;;;;;;;;;;;;;;;;5096145;28;19920;-81
2022/04/23 11:56:54;;;;;;;;;;;;;;;;;;5074878;27;19925;-80
2022/04/23 11:59:20;;;;;;;;;;;;;;;;;;5098498;28;19928;-81
2022/04/23 12:01:46;;;;;;;;;;;;;;;;;;5094236;28;19932;-81
2022/04/23 12:04:13;;;;;;;;;;;;;;;;;;5075510;28;19934;-81
2022/04/23 12:06:39;;;;;;;;;;;;;;;;;;5082021;28;19927;-81
2022/04/23 12:09:07;;;;;;;;;;;;;;;;;;5077679;27;19919;-81
2022/04/23 12:11:33;;;;;;;;;;;;;;;;;;5054748;28;20017;-81
2022/04/23 12:13:59;;;;;;;;;;;;;;;;;;5069987;28;19935;-81
2022/04/23 12:16:25;;;;;;;;;;;;;;;;;;5086644;27;19928;-81
2022/04/23 12:18:54;;;;;;;;;;;;;;;;;;5056034;28;19935;-81
2022/04/23 12:21:20;;;;;;;;;;;;;;;;;;5053491;28;19932;-81
2022/04/23 12:23:46;;;;;;;;;;;;;;;;;;5086268;27;19982;-82
2022/04/23 12:26:18;;;;;;;;;;;;;;;;;;5044238;28;20002;-81
2022/04/23 12:42:22;;;;;;;;;;;;;;;;;;5078985;28;19953;-82
2022/04/23 12:44:51;;;;;;;;;;;;;;;;;;5052314;28;20285;-81
2022/04/23 12:47:17;;;;;;;;;;;;;;;;;;5060842;28;19944;-81
2022/04/23 12:49:45;;;;;;;;;;;;;;;;;;5065814;28;19927;-82
2022/04/23 12:52:13;;;;;;;;;;;;;;;;;;5075071;28;20913;-81
2022/04/23 12:54:39;;;;;;;;;;;;;;;;;;5045339;28;19981;-81
2022/04/23 12:57:06;;;;;;;;;;;;;;;;;;5047149;28;19924;-81
2022/04/23 12:59:32;;;;;;;;;;;;;;;;;;5064428;28;19928;-81
2022/04/23 13:01:58;;;;;;;;;;;;;;;;;;5074198;27;19932;-81
2022/04/23 13:04:25;;;;;;;;;;;;;;;;;;5074466;27;19959;-82
2022/04/23 13:09:36;;;;;;;;;;;;;;;;;;5080064;28;19936;-82
2022/04/23 13:12:02;;;;;;;;;;;;;;;;;;5076638;28;19928;-82
2022/04/23 13:14:28;;;;;;;;;;;;;;;;;;5071754;28;19950;-82
2022/04/23 13:16:54;;;;;;;;;;;;;;;;;;5030106;28;19928;-82
2022/04/23 13:19:20;;;;;;;;;;;;;;;;;;5031905;28;20580;-82
2022/04/23 13:21:46;;;;;;;;;;;;;;;;;;5047167;28;19981;-82
2022/04/23 13:24:12;;;;;;;;;;;;;;;;;;5046915;28;19933;-82
2022/04/23 13:26:38;;;;;;;;;;;;;;;;;;5036219;28;19920;-82
2022/04/23 13:29:05;;;;;;;;;;;;;;;;;;5041078;28;19927;-83
2022/04/23 13:31:31;;;;;;;;;;;;;;;;;;5042598;28;20792;-83
2022/04/23 13:33:57;;;;;;;;;;;;;;;;;;5070442;28;19932;-82
2022/04/23 13:36:23;;;;;;;;;;;;;;;;;;5047575;28;19924;-82
2022/04/23 13:38:49;;;;;;;;;;;;;;;;;;5052306;28;20766;-82
2022/04/23 13:41:16;;;;;;;;;;;;;;;;;;5056201;28;19993;-82
2022/04/23 13:43:43;;;;;;;;;;;;;;;;;;5070749;28;19924;-82
2022/04/23 13:46:09;;;;;;;;;;;;;;;;;;5060015;28;19993;-82
2022/04/23 13:48:35;;;;;;;;;;;;;;;;;;5083904;27;19935;-82
2022/04/23 13:51:01;;;;;;;;;;;;;;;;;;5049015;28;19920;-82
2022/04/23 13:53:27;;;;;;;;;;;;;;;;;;5089044;27;19924;-82
2022/04/23 13:55:53;;;;;;;;;;;;;;;;;;5052488;28;19920;-82
2022/04/23 13:58:19;;;;;;;;;;;;;;;;;;5071714;28;19928;-82
2022/04/23 14:00:45;;;;;;;;;;;;;;;;;;5089617;27;20294;-82
2022/04/23 14:11:32;;;;;;;;;;;;;;;;;;5084212;27;20045;-82
2022/04/23 14:14:01;;;;;;;;;;;;;;;;;;5050070;28;20330;-82
2022/04/23 14:16:27;;;;;;;;;;;;;;;;;;5075348;28;20394;-82
2022/04/23 14:18:55;;;;;;;;;;;;;;;;;;5064890;28;19927;-83
2022/04/23 14:21:23;;;;;;;;;;;;;;;;;;5094637;27;20309;-82
2022/04/23 14:23:59;;;;;;;;;;;;;;;;;;5070362;28;19920;-83
2022/04/23 14:26:25;;;;;;;;;;;;;;;;;;5055167;28;20369;-82
2022/04/23 14:28:53;;;;;;;;;;;;;;;;;;5073953;28;19935;-81
2022/04/23 14:31:19;;;;;;;;;;;;;;;;;;5075566;28;20285;-82
2022/04/23 14:33:46;;;;;;;;;;;;;;;;;;5048301;28;20559;-82
2022/04/23 14:36:11;;;;;;;;;;;;;;;;;;5065991;27;19953;-81
2022/04/23 14:38:38;;;;;;;;;;;;;;;;;;5059760;28;19928;-82
2022/04/23 14:41:04;;;;;;;;;;;;;;;;;;5026376;28;20035;-82
2022/04/23 14:43:30;;;;;;;;;;;;;;;;;;5035458;28;19931;-82
2022/04/23 14:45:56;;;;;;;;;;;;;;;;;;5054628;28;19928;-81
2022/04/23 14:48:22;;;;;;;;;;;;;;;;;;5084269;28;20014;-81
2022/04/23 14:53:33;;;;;;;;;;;;;;;;;;5066561;28;20670;-82
2022/04/23 14:55:59;;;;;;;;;;;;;;;;;;5031294;28;19932;-81
2022/04/23 14:58:27;;;;;;;;;;;;;;;;;;5069985;28;20294;-82
2022/04/23 15:00:53;;;;;;;;;;;;;;;;;;5046811;28;19954;-82
2022/04/23 15:03:19;;;;;;;;;;;;;;;;;;5082847;28;19920;-81
2022/04/23 15:05:45;;;;;;;;;;;;;;;;;;5080845;27;19927;-83
2022/04/23 15:08:11;;;;;;;;;;;;;;;;;;5077563;28;21095;-82
2022/04/23 15:10:37;;;;;;;;;;;;;;;;;;5077888;28;20283;-80
2022/04/23 15:13:05;;;;;;;;;;;;;;;;;;5043416;28;19924;-81
2022/04/23 15:15:31;;;;;;;;;;;;;;;;;;5054602;28;19924;-81
2022/04/23 15:17:57;;;;;;;;;;;;;;;;;;5030853;28;19928;-80
2022/04/23 15:20:22;;;;;;;;;;;;;;;;;;5066102;28;19939;-82
2022/04/23 15:22:48;;;;;;;;;;;;;;;;;;5076982;28;20321;-83
2022/04/23 15:25:15;;;;;;;;;;;;;;;;;;5044419;28;20388;-82
2022/04/23 15:27:41;;;;;;;;;;;;;;;;;;5060332;28;19984;-82
2022/04/23 15:30:07;;;;;;;;;;;;;;;;;;5076104;28;19980;-82
2022/04/23 15:32:33;;;;;;;;;;;;;;;;;;5050074;28;19947;-82
2022/04/23 15:35:00;;;;;;;;;;;;;;;;;;5045926;28;20370;-82
2022/04/23 15:37:27;;;;;;;;;;;;;;;;;;5068076;28;19924;-82
2022/04/23 15:39:53;;;;;;;;;;;;;;;;;;5048946;28;19920;-83
2022/04/23 15:42:19;;;;;;;;;;;;;;;;;;5080441;27;20368;-83
2022/04/23 15:44:46;;;;;;;;;;;;;;;;;;5070306;28;19928;-83
2022/04/23 15:47:14;;;;;;;;;;;;;;;;;;5080637;27;20941;-82
2022/04/23 15:49:41;;;;;;;;;;;;;;;;;;5080583;27;20373;-81
2022/04/23 15:52:10;;;;;;;;;;;;;;;;;;5060499;28;19920;-84
2022/04/23 15:54:38;;;;;;;;;;;;;;;;;;5051099;28;19927;-84
2022/04/23 15:57:05;;;;;;;;;;;;;;;;;;5046947;28;20278;-82
2022/04/23 15:59:31;;;;;;;;;;;;;;;;;;5061509;28;20731;-82
2022/04/23 16:01:57;;;;;;;;;;;;;;;;;;5037751;28;20417;-81
2022/04/23 16:04:24;;;;;;;;;;;;;;;;;;5047511;28;20392;-81
2022/04/23 16:06:51;;;;;;;;;;;;;;;;;;5046222;28;20319;-81
2022/04/23 16:09:17;;;;;;;;;;;;;;;;;;5064452;28;19928;-82
2022/04/23 16:11:43;;;;;;;;;;;;;;;;;;5047808;28;19970;-81
2022/04/23 16:14:10;;;;;;;;;;;;;;;;;;5051530;28;19928;-81
2022/04/23 16:16:37;;;;;;;;;;;;;;;;;;5031528;28;19955;-82
2022/04/23 16:19:05;;;;;;;;;;;;;;;;;;5054922;28;20008;-83
2022/04/23 16:21:32;;;;;;;;;;;;;;;;;;5005145;28;20335;-83
2022/04/23 16:23:59;;;;;;;;;;;;;;;;;;5049778;28;19929;-82
2022/04/23 16:26:25;;;;;;;;;;;;;;;;;;5026360;28;19995;-82
2022/04/23 16:28:55;;;;;;;;;;;;;;;;;;5048314;28;20016;-83
2022/04/23 16:31:22;;;;;;;;;;;;;;;;;;5057501;28;19982;-83
2022/04/23 16:33:51;;;;;;;;;;;;;;;;;;5041300;28;20341;-83
2022/04/23 16:47:25;;;;;;;;;;;;;;;;;;5027607;28;20482;-81
2022/04/23 16:49:54;;;;;;;;;;;;;;;;;;5006985;28;19925;-82
2022/04/23 16:52:21;;;;;;;;;;;;;;;;;;5025129;28;20393;-83
2022/04/23 16:54:48;;;;;;;;;;;;;;;;;;5022793;28;19925;-82
2022/04/23 16:57:14;;;;;;;;;;;;;;;;;;5050219;28;19920;-83
2022/04/23 16:59:41;;;;;;;;;;;;;;;;;;5011734;28;21287;-82
2022/04/23 17:02:08;;;;;;;;;;;;;;;;;;5041413;28;20018;-82
2022/04/23 17:04:36;;;;;;;;;;;;;;;;;;5042954;28;21482;-82
2022/04/23 17:07:03;;;;;;;;;;;;;;;;;;5037798;28;20286;-82
2022/04/23 17:09:30;;;;;;;;;;;;;;;;;;5033869;28;19928;-82
2022/04/23 17:11:57;;;;;;;;;;;;;;;;;;5039958;28;20373;-81
2022/04/23 17:14:24;;;;;;;;;;;;;;;;;;5056036;28;20019;-82
2022/04/23 17:16:50;;;;;;;;;;;;;;;;;;5039213;28;19929;-82
2022/04/23 17:19:19;;;;;;;;;;;;;;;;;;5043423;28;19936;-82
2022/04/23 17:21:46;;;;;;;;;;;;;;;;;;5078866;27;19924;-82
2022/04/23 17:24:16;;;;;;;;;;;;;;;;;;5027238;28;20357;-82
2022/04/23 17:26:42;;;;;;;;;;;;;;;;;;5052509;28;20505;-81
2022/04/23 17:29:08;;;;;;;;;;;;;;;;;;5042427;28;20353;-81
2022/04/23 17:31:34;;;;;;;;;;;;;;;;;;5041106;28;19928;-81
2022/04/23 17:34:00;;;;;;;;;;;;;;;;;;5039627;28;20423;-82
2022/04/23 17:36:26;;;;;;;;;;;;;;;;;;5027795;28;19963;-81
2022/04/23 17:38:54;;;;;;;;;;;;;;;;;;5053197;28;19925;-81
2022/04/23 17:41:20;;;;;;;;;;;;;;;;;;5061021;28;20309;-85
2022/04/23 17:43:46;;;;;;;;;;;;;;;;;;5044356;28;19927;-85
2022/04/23 17:46:12;;;;;;;;;;;;;;;;;;5026785;28;19935;-85
2022/04/23 17:48:38;;;;;;;;;;;;;;;;;;5037527;28;20011;-85
2022/04/23 17:51:06;;;;;;;;;;;;;;;;;;5041930;28;20160;-85
2022/04/23 17:53:32;;;;;;;;;;;;;;;;;;5045407;28;19920;-85
2022/04/23 17:55:58;;;;;;;;;;;;;;;;;;5073649;28;19935;-85
2022/04/23 17:58:24;;;;;;;;;;;;;;;;;;5048119;28;20072;-85
2022/04/23 18:09:04;;;;;;;;;;;;;;;;;;5076979;28;20729;-86
2022/04/23 18:11:30;;;;;;;;;;;;;;;;;;5061832;28;19924;-85
2022/04/23 18:13:56;;;;;;;;;;;;;;;;;;5056408;28;21842;-85
2022/04/23 18:16:22;;;;;;;;;;;;;;;;;;5044819;28;20419;-85
2022/04/23 18:18:49;;;;;;;;;;;;;;;;;;5077591;27;19928;-85
2022/04/23 18:21:16;;;;;;;;;;;;;;;;;;5073560;28;20001;-85
2022/04/23 18:23:42;;;;;;;;;;;;;;;;;;5065826;28;20033;-85